Parkrose, Oregon
Current Conditions -  °F | °C
As of 5:53 AM on Sunday 21 Dec 2014 (Local Time) from KTTD Reporting Station
Overcast Overcast  
Wind Chill: 13°   Ceiling: 4600
Heat Index: 13°   Visibility: 10mi
Dew Point:   Wind: 10mph
Humidity: 77%   Direction: 210°SSW
Pressure: 29.91"   Gusts: NA
Location:  45.5423°N, 122.5°W
Report Text: KTTD 211353Z AUTO 21009KT 10SM BKN046 OVC110 13/09 A2991 RMK AO2 SLP128 T01330094
Loading
Personal Weather Stations






























Interactive Weather Map New forecast layout! Learn more

10-Day Weather Forecast

Advertisements
Track Severe Weather on mobile